Time;durP1;ratioP1;P1;durP2;ratioP2;P2;SDS_P1;SDS_P2;PMS_P1;PMS_P2;Temp;Humidity;BMP_temperature;BMP_pressure;BME280_temperature;BME280_humidity;BME280_pressure;Samples;Min_cycle;Max_cycle;Signal;HPM_P1;HPM_P2
2023/06/23 00:03:31;;;;;;;15.57;8.98;;;;;;;;;;8206640;29;20062;-96
2023/06/23 00:11:54;;;;;;;14.05;8.85;;;;;;;;;;8193812;23;20666;-95
2023/06/23 00:15:59;;;;;;;14.35;9.27;;;;;;;;;;8223621;23;20058;-95
2023/06/23 00:20:13;;;;;;;15.55;9.35;;;;;;;;;;8225661;28;20146;-95
2023/06/23 00:24:16;;;;;;;15.35;9.18;;;;;;;;;;8240202;28;20078;-96
2023/06/23 00:28:26;;;;;;;15.30;8.98;;;;;;;;;;8218524;23;20059;-96
2023/06/23 00:32:51;;;;;;;13.50;8.75;;;;;;;;;;8218949;28;20066;-95
2023/06/23 00:41:49;;;;;;;12.02;7.95;;;;;;;;;;8206076;29;20065;-96
2023/06/23 00:45:53;;;;;;;16.83;9.52;;;;;;;;;;8188811;29;20055;-96
2023/06/23 00:49:58;;;;;;;13.48;8.95;;;;;;;;;;8215687;28;20055;-94
2023/06/23 00:54:01;;;;;;;15.23;8.88;;;;;;;;;;8207607;28;20059;-96
2023/06/23 00:58:08;;;;;;;14.00;8.40;;;;;;;;;;8214208;28;20047;-95
2023/06/23 01:02:12;;;;;;;10.82;7.93;;;;;;;;;;8205360;29;20059;-96
2023/06/23 01:06:25;;;;;;;14.18;9.18;;;;;;;;;;8174104;29;20066;-95
2023/06/23 01:10:36;;;;;;;12.35;8.00;;;;;;;;;;8204990;28;20062;-96
2023/06/23 01:14:48;;;;;;;13.45;8.63;;;;;;;;;;8169645;23;20063;-95
2023/06/23 01:18:54;;;;;;;14.63;8.63;;;;;;;;;;8190428;23;20113;-96
2023/06/23 01:23:25;;;;;;;13.43;8.75;;;;;;;;;;8232732;28;20050;-96
2023/06/23 01:28:00;;;;;;;14.20;9.07;;;;;;;;;;8235685;28;20058;-95
2023/06/23 01:32:11;;;;;;;11.88;8.38;;;;;;;;;;8228213;28;20559;-96
2023/06/23 01:36:20;;;;;;;14.05;9.25;;;;;;;;;;8237804;28;20054;-96
2023/06/23 01:40:26;;;;;;;13.30;8.60;;;;;;;;;;8238811;28;20058;-95
2023/06/23 01:44:32;;;;;;;14.07;7.78;;;;;;;;;;8238217;28;20058;-96
2023/06/23 01:48:41;;;;;;;10.70;7.55;;;;;;;;;;8239123;28;20074;-95
2023/06/23 01:52:45;;;;;;;12.30;8.60;;;;;;;;;;8239802;28;20450;-95
2023/06/23 01:56:50;;;;;;;12.38;8.38;;;;;;;;;;8238547;28;20079;-96
2023/06/23 02:00:54;;;;;;;11.98;7.93;;;;;;;;;;8220382;28;20047;-95
2023/06/23 02:05:00;;;;;;;14.25;8.05;;;;;;;;;;8238107;28;20058;-94
2023/06/23 02:09:13;;;;;;;14.85;7.95;;;;;;;;;;8220999;28;20061;-96
2023/06/23 02:13:26;;;;;;;13.15;7.18;;;;;;;;;;8237262;28;20438;-96
2023/06/23 02:26:41;;;;;;;9.98;7.18;;;;;;;;;;8169477;29;20055;-95
2023/06/23 02:31:01;;;;;;;10.55;6.90;;;;;;;;;;8186152;29;20063;-96
2023/06/23 02:35:14;;;;;;;11.55;7.38;;;;;;;;;;8155136;29;20063;-95
2023/06/23 02:44:17;;;;;;;13.03;6.70;;;;;;;;;;8509607;27;1602871;-93
2023/06/23 02:48:33;;;;;;;12.95;6.55;;;;;;;;;;8563120;27;20123;-95
2023/06/23 02:52:56;;;;;;;9.35;6.10;;;;;;;;;;8561197;27;20128;-95
2023/06/23 02:57:04;;;;;;;9.80;6.00;;;;;;;;;;8561408;27;20046;-95
2023/06/23 03:05:30;;;;;;;6.75;4.60;;;;;;;;;;8557067;27;20482;-94
2023/06/23 03:09:34;;;;;;;9.20;5.22;;;;;;;;;;8551054;27;20058;-94
2023/06/23 03:13:38;;;;;;;8.48;5.25;;;;;;;;;;8555963;27;20077;-94
2023/06/23 03:17:58;;;;;;;8.75;5.40;;;;;;;;;;8556812;27;20034;-96
2023/06/23 03:22:09;;;;;;;9.90;5.82;;;;;;;;;;8543567;27;20050;-93
2023/06/23 03:26:14;;;;;;;9.65;5.38;;;;;;;;;;8552598;27;20401;-95
2023/06/23 03:30:21;;;;;;;10.50;5.88;;;;;;;;;;8560116;27;20038;-95
2023/06/23 03:34:33;;;;;;;12.00;6.22;;;;;;;;;;8541623;27;20099;-95
2023/06/23 03:38:42;;;;;;;10.50;6.28;;;;;;;;;;8556842;27;20080;-96
2023/06/23 03:42:50;;;;;;;10.85;6.30;;;;;;;;;;8541407;27;20074;-93
2023/06/23 03:46:58;;;;;;;9.50;5.80;;;;;;;;;;8534747;27;20035;-95
2023/06/23 03:51:07;;;;;;;11.32;5.88;;;;;;;;;;8548614;27;20046;-94
2023/06/23 03:55:14;;;;;;;10.50;6.30;;;;;;;;;;8364422;22;20116;-94
2023/06/23 03:59:20;;;;;;;13.65;5.90;;;;;;;;;;8369525;28;20072;-95
2023/06/23 04:03:24;;;;;;;11.93;6.35;;;;;;;;;;8369192;28;20051;-94
2023/06/23 04:12:03;;;;;;;9.20;6.18;;;;;;;;;;8380805;28;20102;-94
2023/06/23 04:16:08;;;;;;;9.85;5.93;;;;;;;;;;8377350;28;20082;-93
2023/06/23 04:20:29;;;;;;;9.75;5.55;;;;;;;;;;8395919;28;20474;-95
2023/06/23 04:24:41;;;;;;;11.07;5.40;;;;;;;;;;8381997;28;20041;-94
2023/06/23 04:32:57;;;;;;;8.80;5.00;;;;;;;;;;8408043;22;20106;-94
2023/06/23 04:37:11;;;;;;;10.65;4.97;;;;;;;;;;8415343;28;20048;-95
2023/06/23 04:41:25;;;;;;;11.10;5.22;;;;;;;;;;8381709;28;20044;-95
2023/06/23 04:45:38;;;;;;;10.18;5.40;;;;;;;;;;8390336;28;20098;-94
2023/06/23 04:49:48;;;;;;;11.15;6.38;;;;;;;;;;8400843;28;20048;-94
2023/06/23 04:54:09;;;;;;;9.77;5.83;;;;;;;;;;8404270;22;20045;-93
2023/06/23 04:58:15;;;;;;;13.93;6.57;;;;;;;;;;8396226;28;20559;-94
2023/06/23 05:02:26;;;;;;;9.38;6.78;;;;;;;;;;8398888;28;20317;-95
2023/06/23 05:06:32;;;;;;;11.75;6.40;;;;;;;;;;8396353;28;20060;-96
2023/06/23 05:10:36;;;;;;;11.77;6.53;;;;;;;;;;8367621;28;20044;-94
2023/06/23 05:14:49;;;;;;;11.85;6.22;;;;;;;;;;8396458;28;20780;-93
2023/06/23 05:18:54;;;;;;;11.27;5.85;;;;;;;;;;8394685;28;20469;-93
2023/06/23 05:23:05;;;;;;;8.57;5.68;;;;;;;;;;8397816;28;20121;-93
2023/06/23 05:27:10;;;;;;;10.32;6.40;;;;;;;;;;8385191;28;20045;-93
2023/06/23 05:31:17;;;;;;;13.88;10.05;;;;;;;;;;8395350;28;20155;-94
2023/06/23 05:35:26;;;;;;;9.13;5.90;;;;;;;;;;8380886;28;20048;-93
2023/06/23 05:39:32;;;;;;;7.43;5.40;;;;;;;;;;8381852;28;20053;-92
2023/06/23 05:43:35;;;;;;;10.43;5.88;;;;;;;;;;8384895;28;20051;-93
2023/06/23 05:48:02;;;;;;;8.30;5.55;;;;;;;;;;8394629;28;20126;-96
2023/06/23 05:52:34;;;;;;;12.07;6.50;;;;;;;;;;8384348;28;20059;-95
2023/06/23 05:56:46;;;;;;;7.93;5.50;;;;;;;;;;8410370;28;20045;-94
2023/06/23 06:05:33;;;;;;;10.20;6.63;;;;;;;;;;8522599;22;20604;-95
2023/06/23 06:09:52;;;;;;;10.40;6.47;;;;;;;;;;8236452;22;20854;-95
2023/06/23 06:18:26;;;;;;;48.00;27.58;;;;;;;;;;8223202;28;20133;-96
2023/06/23 06:22:33;;;;;;;10.57;6.05;;;;;;;;;;8222977;28;20082;-95
2023/06/23 06:26:36;;;;;;;10.57;5.53;;;;;;;;;;8213055;28;20392;-96
2023/06/23 06:30:42;;;;;;;9.15;5.85;;;;;;;;;;8225013;28;20054;-95
2023/06/23 06:34:49;;;;;;;13.00;7.03;;;;;;;;;;8244387;28;20051;-95
2023/06/23 06:58:04;;;;;;;17.70;10.32;;;;;;;;;;10205799;22;2032697;-89
2023/06/23 07:02:14;;;;;;;17.63;11.02;;;;;;;;;;10306108;23;20340;-92
2023/06/23 07:10:45;;;;;;;33.65;19.08;;;;;;;;;;10305384;23;20057;-92
2023/06/23 07:20:54;;;;;;;17.58;10.13;;;;;;;;;;10389381;22;20515;-90
2023/06/23 07:26:06;;;;;;;18.63;11.43;;;;;;;;;;10501074;22;20026;-91
2023/06/23 07:30:54;;;;;;;20.40;13.27;;;;;;;;;;10484738;22;20022;-92
2023/06/23 07:40:16;;;;;;;18.33;12.82;;;;;;;;;;10501158;22;20713;-93
2023/06/23 07:44:22;;;;;;;21.05;12.98;;;;;;;;;;10499161;22;20060;-87
2023/06/23 07:48:28;;;;;;;19.60;12.90;;;;;;;;;;10516063;22;20093;-88
2023/06/23 07:57:27;;;;;;;20.50;14.55;;;;;;;;;;10490749;22;20061;-88
2023/06/23 08:01:49;;;;;;;23.85;15.02;;;;;;;;;;10486044;22;20018;-88
2023/06/23 08:06:23;;;;;;;29.17;15.43;;;;;;;;;;10503700;22;20026;-91
2023/06/23 08:10:26;;;;;;;16.15;12.25;;;;;;;;;;10486607;22;20068;-88
2023/06/23 08:14:29;;;;;;;19.77;12.80;;;;;;;;;;10488427;22;20022;-89
2023/06/23 08:18:33;;;;;;;22.50;13.23;;;;;;;;;;10490236;22;20015;-88
2023/06/23 08:22:39;;;;;;;16.40;9.90;;;;;;;;;;10491918;22;20076;-87
2023/06/23 08:26:42;;;;;;;36.78;24.83;;;;;;;;;;10508337;22;20030;-88
2023/06/23 08:30:46;;;;;;;15.75;10.73;;;;;;;;;;10489160;22;20018;-88
2023/06/23 08:34:49;;;;;;;18.15;11.27;;;;;;;;;;10489356;22;20053;-88
2023/06/23 08:38:54;;;;;;;15.88;9.50;;;;;;;;;;10492168;22;20015;-89
2023/06/23 08:48:00;;;;;;;14.75;8.30;;;;;;;;;;10479467;22;20466;-88
2023/06/23 08:52:45;;;;;;;14.15;8.32;;;;;;;;;;10460897;22;20015;-88
2023/06/23 08:56:56;;;;;;;13.18;6.50;;;;;;;;;;10425103;22;20354;-87
2023/06/23 09:01:05;;;;;;;11.77;6.30;;;;;;;;;;10464030;22;20014;-88
2023/06/23 09:05:10;;;;;;;13.15;5.80;;;;;;;;;;10509332;22;20143;-89
2023/06/23 09:09:13;;;;;;;30.35;20.67;;;;;;;;;;10490657;22;20416;-87
2023/06/23 09:13:23;;;;;;;18.42;9.50;;;;;;;;;;10491584;22;20025;-87
2023/06/23 09:18:00;;;;;;;12.27;5.82;;;;;;;;;;10508795;22;20011;-88
2023/06/23 09:22:24;;;;;;;13.00;6.00;;;;;;;;;;10492026;22;20046;-89
2023/06/23 09:26:28;;;;;;;11.43;5.28;;;;;;;;;;10464189;22;20064;-91
2023/06/23 09:30:37;;;;;;;11.10;4.28;;;;;;;;;;10491416;22;20023;-89
2023/06/23 09:34:40;;;;;;;10.90;4.70;;;;;;;;;;10504505;22;20019;-89
2023/06/23 09:38:44;;;;;;;10.57;4.10;;;;;;;;;;10491343;22;20019;-88
2023/06/23 09:42:47;;;;;;;11.18;4.43;;;;;;;;;;10490890;22;20360;-88
2023/06/23 09:47:02;;;;;;;9.23;4.20;;;;;;;;;;10491738;22;20346;-89
2023/06/23 09:51:07;;;;;;;10.02;4.35;;;;;;;;;;10508718;22;20018;-89
2023/06/23 09:55:10;;;;;;;12.38;4.55;;;;;;;;;;10492052;22;20045;-88
2023/06/23 09:59:17;;;;;;;15.50;4.97;;;;;;;;;;10491503;22;20025;-90
2023/06/23 10:03:21;;;;;;;10.23;4.53;;;;;;;;;;10504642;22;20023;-88
2023/06/23 10:07:26;;;;;;;13.75;6.10;;;;;;;;;;10488497;22;20021;-88
2023/06/23 10:11:33;;;;;;;11.60;5.97;;;;;;;;;;10488376;22;20557;-88
2023/06/23 10:16:03;;;;;;;179.98;77.18;;;;;;;;;;10494393;22;20442;-89
2023/06/23 10:24:25;;;;;;;18.15;8.15;;;;;;;;;;10450509;22;20057;-89
2023/06/23 10:28:30;;;;;;;16.42;10.45;;;;;;;;;;10500796;22;20371;-90
2023/06/23 10:32:35;;;;;;;203.38;99.95;;;;;;;;;;10484777;22;20025;-90
2023/06/23 10:36:42;;;;;;;14.35;5.82;;;;;;;;;;10501908;22;20053;-89
2023/06/23 10:40:50;;;;;;;16.65;8.98;;;;;;;;;;10484826;22;20054;-89
2023/06/23 10:44:54;;;;;;;8.85;4.10;;;;;;;;;;10501748;22;20456;-89
2023/06/23 10:48:58;;;;;;;9.15;3.88;;;;;;;;;;10484659;22;20466;-90
2023/06/23 10:53:12;;;;;;;13.00;4.65;;;;;;;;;;10484843;22;20050;-89
2023/06/23 10:57:16;;;;;;;11.05;3.60;;;;;;;;;;10484158;22;20350;-89
2023/06/23 11:01:19;;;;;;;8.57;3.55;;;;;;;;;;10484805;22;20144;-89
2023/06/23 11:05:22;;;;;;;8.60;3.55;;;;;;;;;;10485230;22;20510;-90
2023/06/23 11:09:43;;;;;;;8.35;3.38;;;;;;;;;;10483506;22;20030;-90
2023/06/23 11:13:51;;;;;;;10.88;3.85;;;;;;;;;;10499196;22;20018;-90
2023/06/23 11:18:04;;;;;;;10.35;3.53;;;;;;;;;;10481115;22;20023;-90
2023/06/23 11:22:11;;;;;;;12.32;3.53;;;;;;;;;;10491771;22;20098;-90
2023/06/23 11:26:28;;;;;;;11.02;3.58;;;;;;;;;;10483414;22;20089;-90
2023/06/23 11:30:32;;;;;;;11.15;3.78;;;;;;;;;;10501819;22;20591;-90
2023/06/23 11:34:57;;;;;;;11.10;3.90;;;;;;;;;;10486911;22;20071;-89
2023/06/23 11:39:00;;;;;;;12.02;4.45;;;;;;;;;;10504441;22;20050;-90
2023/06/23 11:43:03;;;;;;;10.00;4.10;;;;;;;;;;10486635;22;20071;-88
2023/06/23 11:47:08;;;;;;;12.52;4.47;;;;;;;;;;10487682;22;20093;-90
2023/06/23 11:51:15;;;;;;;9.43;4.13;;;;;;;;;;10486941;22;20492;-90
2023/06/23 11:55:18;;;;;;;10.82;4.20;;;;;;;;;;10503903;22;20093;-89
2023/06/23 11:59:21;;;;;;;7.85;4.07;;;;;;;;;;10486658;22;20148;-90
2023/06/23 12:03:26;;;;;;;10.13;4.38;;;;;;;;;;10486933;22;20023;-90
2023/06/23 12:07:31;;;;;;;12.90;4.53;;;;;;;;;;10486764;22;20108;-89
2023/06/23 12:11:37;;;;;;;8.80;4.18;;;;;;;;;;10486163;22;20101;-90
2023/06/23 12:15:41;;;;;;;13.85;5.07;;;;;;;;;;10486532;22;20046;-90
2023/06/23 12:19:48;;;;;;;9.80;4.45;;;;;;;;;;10486672;22;20014;-90
2023/06/23 12:23:52;;;;;;;11.23;5.13;;;;;;;;;;10432879;22;20405;-89
2023/06/23 12:27:56;;;;;;;11.07;5.10;;;;;;;;;;10435209;22;20064;-90
2023/06/23 12:32:02;;;;;;;11.70;5.82;;;;;;;;;;10433424;22;20053;-91
2023/06/23 12:36:11;;;;;;;11.43;5.68;;;;;;;;;;10451237;22;20073;-91
2023/06/23 12:40:29;;;;;;;13.27;5.95;;;;;;;;;;10432172;22;20019;-90
2023/06/23 12:44:36;;;;;;;12.85;5.63;;;;;;;;;;10448611;22;20065;-89
2023/06/23 12:48:40;;;;;;;14.77;6.45;;;;;;;;;;10432299;22;20434;-90
2023/06/23 12:53:24;;;;;;;14.10;5.90;;;;;;;;;;10431649;22;20019;-94
2023/06/23 12:57:28;;;;;;;13.43;6.20;;;;;;;;;;10437303;22;20418;-92
2023/06/23 13:01:31;;;;;;;10.30;5.60;;;;;;;;;;10437275;22;20046;-91
2023/06/23 13:05:35;;;;;;;10.30;6.30;;;;;;;;;;10435534;22;20118;-92
2023/06/23 13:09:38;;;;;;;13.02;7.00;;;;;;;;;;10434379;22;20645;-90
2023/06/23 13:13:42;;;;;;;14.52;6.90;;;;;;;;;;10434375;22;20099;-90
2023/06/23 13:17:45;;;;;;;15.18;5.90;;;;;;;;;;10434055;22;20092;-88
2023/06/23 13:21:51;;;;;;;12.13;6.55;;;;;;;;;;10193651;22;20060;-89
2023/06/23 13:25:54;;;;;;;13.98;8.73;;;;;;;;;;10192027;23;20053;-89
2023/06/23 13:29:59;;;;;;;13.90;8.00;;;;;;;;;;10175980;23;20056;-89
2023/06/23 13:34:03;;;;;;;14.27;7.30;;;;;;;;;;10175487;23;20025;-90
2023/06/23 13:38:06;;;;;;;12.90;7.93;;;;;;;;;;10175983;23;20051;-89
2023/06/23 13:42:09;;;;;;;13.65;7.35;;;;;;;;;;10178585;23;20037;-89
2023/06/23 13:46:14;;;;;;;13.32;6.63;;;;;;;;;;10150636;23;20094;-89
2023/06/23 13:50:17;;;;;;;14.82;7.90;;;;;;;;;;10177150;23;20033;-89
2023/06/23 13:54:22;;;;;;;13.15;7.43;;;;;;;;;;10177906;23;20029;-90
2023/06/23 13:58:25;;;;;;;12.10;7.00;;;;;;;;;;10179535;23;20028;-93
2023/06/23 14:02:44;;;;;;;12.48;7.30;;;;;;;;;;10187214;23;20105;-91
2023/06/23 14:06:47;;;;;;;13.88;7.57;;;;;;;;;;10202571;23;20041;-90
2023/06/23 14:10:50;;;;;;;13.85;7.70;;;;;;;;;;10187599;23;20021;-91
2023/06/23 14:14:56;;;;;;;18.63;8.30;;;;;;;;;;10185622;23;20032;-91
2023/06/23 14:19:04;;;;;;;12.02;8.20;;;;;;;;;;10196988;23;20021;-90
2023/06/23 14:23:07;;;;;;;13.98;8.68;;;;;;;;;;10203131;23;20017;-92
2023/06/23 14:27:13;;;;;;;13.20;7.90;;;;;;;;;;10188907;23;20453;-91
2023/06/23 14:31:16;;;;;;;14.75;8.15;;;;;;;;;;10202983;23;20429;-90
2023/06/23 14:35:26;;;;;;;17.75;9.32;;;;;;;;;;10233380;22;20033;-91
2023/06/23 14:44:42;;;;;;;15.57;8.18;;;;;;;;;;10483229;22;20049;-90
2023/06/23 14:53:48;;;;;;;12.00;7.57;;;;;;;;;;10514369;22;20022;-91
2023/06/23 14:58:02;;;;;;;14.02;8.48;;;;;;;;;;10514023;22;20033;-88
2023/06/23 15:02:18;;;;;;;;;;;;;;;;;;10515073;22;20022;-91
2023/06/23 15:06:22;;;;;;;11.43;9.20;;;;;;;;;;10498058;22;19915;-92
2023/06/23 15:10:30;;;;;;;13.90;7.97;;;;;;;;;;10520546;22;20014;-93
2023/06/23 15:14:36;;;;;;;13.43;8.38;;;;;;;;;;10518369;22;20102;-95
2023/06/23 15:18:40;;;;;;;14.00;8.50;;;;;;;;;;10516615;22;20029;-92
2023/06/23 15:22:43;;;;;;;14.13;8.73;;;;;;;;;;10497302;22;20027;-92
2023/06/23 15:26:50;;;;;;;13.68;9.32;;;;;;;;;;10497137;22;20454;-91
2023/06/23 15:30:53;;;;;;;12.77;8.90;;;;;;;;;;10518717;22;20019;-92
2023/06/23 15:34:56;;;;;;;14.20;8.88;;;;;;;;;;10501676;22;20026;-90
2023/06/23 15:39:00;;;;;;;16.83;8.52;;;;;;;;;;10498576;22;20034;-92
2023/06/23 15:43:10;;;;;;;11.05;8.00;;;;;;;;;;10500461;22;20106;-94
2023/06/23 15:47:15;;;;;;;14.27;8.18;;;;;;;;;;10497039;22;20312;-94
2023/06/23 15:51:18;;;;;;;12.70;8.55;;;;;;;;;;10499970;22;20385;-93
2023/06/23 15:55:23;;;;;;;13.85;9.20;;;;;;;;;;10498797;22;20019;-93
2023/06/23 15:59:29;;;;;;;12.88;8.60;;;;;;;;;;10500555;22;20030;-93
2023/06/23 16:03:32;;;;;;;15.32;9.10;;;;;;;;;;10474605;22;20026;-93
2023/06/23 16:07:37;;;;;;;15.82;8.80;;;;;;;;;;10507591;22;20034;-96
2023/06/23 16:12:05;;;;;;;11.15;8.07;;;;;;;;;;10522172;22;20068;-92
2023/06/23 16:16:20;;;;;;;14.23;8.80;;;;;;;;;;10521982;22;20015;-93
2023/06/23 16:20:28;;;;;;;14.15;8.98;;;;;;;;;;10507833;22;20027;-92
2023/06/23 16:24:33;;;;;;;13.38;9.43;;;;;;;;;;10525692;22;20037;-92
2023/06/23 16:28:37;;;;;;;14.10;9.45;;;;;;;;;;10509529;22;20056;-91
2023/06/23 16:32:41;;;;;;;16.50;10.27;;;;;;;;;;10505469;22;20015;-89
2023/06/23 16:36:45;;;;;;;15.70;9.38;;;;;;;;;;10476425;22;20026;-91
2023/06/23 16:40:48;;;;;;;13.90;9.73;;;;;;;;;;10467764;22;20022;-89
2023/06/23 16:44:53;;;;;;;20.48;10.48;;;;;;;;;;10491709;22;20346;-93
2023/06/23 16:48:57;;;;;;;15.73;10.13;;;;;;;;;;10488923;22;20042;-93
2023/06/23 16:53:00;;;;;;;16.60;11.30;;;;;;;;;;10488042;22;20019;-91
2023/06/23 16:57:04;;;;;;;15.95;10.50;;;;;;;;;;10484788;22;20053;-90
2023/06/23 17:01:07;;;;;;;16.23;10.77;;;;;;;;;;10485467;22;20045;-93
2023/06/23 17:05:14;;;;;;;16.33;11.02;;;;;;;;;;10458982;22;20019;-91
2023/06/23 17:09:17;;;;;;;16.35;11.68;;;;;;;;;;10505522;22;20016;-91
2023/06/23 17:13:20;;;;;;;19.05;12.63;;;;;;;;;;10487374;22;20022;-93
2023/06/23 17:17:23;;;;;;;17.33;12.25;;;;;;;;;;10488704;22;20018;-90
2023/06/23 17:21:27;;;;;;;16.60;10.85;;;;;;;;;;10488261;22;20015;-93
2023/06/23 17:25:30;;;;;;;19.38;12.07;;;;;;;;;;10487514;22;20019;-92
2023/06/23 17:29:34;;;;;;;19.27;13.07;;;;;;;;;;10488303;22;20359;-91
2023/06/23 17:33:37;;;;;;;15.48;11.15;;;;;;;;;;10488735;22;20072;-90
2023/06/23 17:37:42;;;;;;;15.70;11.50;;;;;;;;;;10488170;22;20045;-93
2023/06/23 17:41:48;;;;;;;13.07;9.52;;;;;;;;;;10495257;22;20026;-90
2023/06/23 17:45:51;;;;;;;14.57;10.45;;;;;;;;;;10503857;22;20019;-90
2023/06/23 17:49:55;;;;;;;12.15;9.05;;;;;;;;;;10488005;22;20018;-92
2023/06/23 17:54:04;;;;;;;15.02;9.88;;;;;;;;;;10495716;22;20090;-93
2023/06/23 17:58:08;;;;;;;14.10;9.95;;;;;;;;;;10463958;22;20023;-92
2023/06/23 18:02:15;;;;;;;15.77;10.60;;;;;;;;;;10491096;22;20022;-95
2023/06/23 18:06:18;;;;;;;14.43;10.15;;;;;;;;;;10508060;22;20025;-91
2023/06/23 18:10:23;;;;;;;14.73;10.88;;;;;;;;;;10489494;22;20021;-91
2023/06/23 18:14:27;;;;;;;16.27;11.23;;;;;;;;;;10507347;22;20014;-93
2023/06/23 18:18:31;;;;;;;21.58;11.65;;;;;;;;;;10491317;22;20042;-92
2023/06/23 18:22:37;;;;;;;17.98;12.20;;;;;;;;;;10490164;22;20058;-92
2023/06/23 18:26:45;;;;;;;14.27;10.63;;;;;;;;;;10490689;22;20018;-90
2023/06/23 18:30:48;;;;;;;14.90;11.05;;;;;;;;;;10507258;22;20019;-94
2023/06/23 18:34:53;;;;;;;18.05;11.57;;;;;;;;;;10491390;22;20015;-91
2023/06/23 18:38:56;;;;;;;18.90;11.60;;;;;;;;;;10492415;22;20030;-93
2023/06/23 18:43:00;;;;;;;14.75;11.45;;;;;;;;;;10491925;22;20072;-94
2023/06/23 18:47:04;;;;;;;21.65;12.93;;;;;;;;;;10491635;22;20015;-94
2023/06/23 18:51:07;;;;;;;17.83;12.60;;;;;;;;;;10492056;22;20080;-91
2023/06/23 18:55:11;;;;;;;22.20;13.57;;;;;;;;;;10492129;22;20465;-93
2023/06/23 18:59:16;;;;;;;21.88;13.88;;;;;;;;;;10492169;22;20339;-90
2023/06/23 19:03:19;;;;;;;24.67;14.48;;;;;;;;;;10493414;22;20019;-92
2023/06/23 19:07:22;;;;;;;22.23;15.02;;;;;;;;;;10492431;22;20023;-91
2023/06/23 19:11:26;;;;;;;18.98;15.57;;;;;;;;;;10492277;22;20045;-92
2023/06/23 19:15:30;;;;;;;24.02;15.80;;;;;;;;;;10492002;22;20015;-91
2023/06/23 19:19:33;;;;;;;21.55;16.02;;;;;;;;;;10492077;22;20075;-94
2023/06/23 19:23:36;;;;;;;23.02;15.45;;;;;;;;;;10491967;22;20072;-92
2023/06/23 19:27:39;;;;;;;18.40;14.30;;;;;;;;;;10492045;22;20015;-90
2023/06/23 19:31:44;;;;;;;18.90;13.95;;;;;;;;;;10492339;22;20018;-92
2023/06/23 19:35:47;;;;;;;18.40;13.98;;;;;;;;;;10492025;22;20019;-90
2023/06/23 19:39:50;;;;;;;18.73;14.07;;;;;;;;;;10492199;22;20046;-91
2023/06/23 19:43:53;;;;;;;19.73;14.38;;;;;;;;;;10490901;22;20015;-95
2023/06/23 19:47:57;;;;;;;20.23;15.38;;;;;;;;;;10490669;22;20019;-90
2023/06/23 19:52:00;;;;;;;17.77;14.90;;;;;;;;;;10491100;22;20347;-89
2023/06/23 19:56:04;;;;;;;22.92;15.77;;;;;;;;;;10494213;22;20434;-91
2023/06/23 20:00:09;;;;;;;26.33;17.20;;;;;;;;;;10493950;22;20098;-91
2023/06/23 20:04:15;;;;;;;30.60;18.02;;;;;;;;;;10493913;22;20019;-93
2023/06/23 20:08:18;;;;;;;30.73;18.60;;;;;;;;;;10511329;22;20014;-92
2023/06/23 20:12:21;;;;;;;25.10;16.35;;;;;;;;;;10493716;22;20026;-91
2023/06/23 20:16:24;;;;;;;27.30;17.77;;;;;;;;;;10493885;22;20057;-91
2023/06/23 20:20:28;;;;;;;23.40;16.70;;;;;;;;;;10494030;22;20019;-94
2023/06/23 20:24:31;;;;;;;27.58;16.48;;;;;;;;;;10493577;22;20018;-90
2023/06/23 20:28:34;;;;;;;31.27;17.65;;;;;;;;;;10493520;22;20019;-91
2023/06/23 20:32:37;;;;;;;21.75;16.75;;;;;;;;;;10493572;22;20097;-90
2023/06/23 20:36:43;;;;;;;23.75;16.67;;;;;;;;;;10493508;22;20078;-91
2023/06/23 20:40:46;;;;;;;23.67;16.60;;;;;;;;;;10504909;22;20347;-91
2023/06/23 20:44:50;;;;;;;24.33;16.45;;;;;;;;;;10493227;22;20029;-90
2023/06/23 20:48:53;;;;;;;22.48;15.55;;;;;;;;;;10494002;22;20081;-92
2023/06/23 20:52:57;;;;;;;25.35;18.33;;;;;;;;;;10493580;22;20045;-92
2023/06/23 20:57:01;;;;;;;20.90;16.75;;;;;;;;;;10493349;22;20510;-89
2023/06/23 21:01:04;;;;;;;20.10;17.00;;;;;;;;;;10493791;22;20019;-90
2023/06/23 21:05:08;;;;;;;22.60;18.13;;;;;;;;;;10494465;22;20022;-91
2023/06/23 21:09:12;;;;;;;23.92;18.33;;;;;;;;;;10466803;22;20339;-92
2023/06/23 21:13:14;;;;;;;24.17;17.80;;;;;;;;;;10467295;22;20019;-91
2023/06/23 21:17:18;;;;;;;24.20;18.52;;;;;;;;;;10494187;22;20015;-90
2023/06/23 21:21:21;;;;;;;22.35;17.58;;;;;;;;;;10493237;22;20058;-92
2023/06/23 21:25:26;;;;;;;26.85;19.30;;;;;;;;;;10493063;22;20030;-89
2023/06/23 21:29:29;;;;;;;21.85;18.42;;;;;;;;;;10510313;22;20463;-90
2023/06/23 21:33:32;;;;;;;27.25;19.50;;;;;;;;;;10492909;22;20086;-89
2023/06/23 21:37:35;;;;;;;30.35;22.17;;;;;;;;;;10492414;22;20022;-90
2023/06/23 21:41:39;;;;;;;27.25;20.98;;;;;;;;;;10492384;22;20409;-91
2023/06/23 21:45:43;;;;;;;26.85;19.45;;;;;;;;;;10492528;22;20429;-92
2023/06/23 21:49:46;;;;;;;27.55;19.05;;;;;;;;;;10491876;22;20025;-90
2023/06/23 21:53:49;;;;;;;27.23;20.40;;;;;;;;;;10492179;22;20015;-93
2023/06/23 21:57:53;;;;;;;25.02;19.10;;;;;;;;;;10491494;22;20023;-90
2023/06/23 22:01:56;;;;;;;26.85;20.90;;;;;;;;;;10491892;22;20019;-91
2023/06/23 22:05:59;;;;;;;30.52;21.13;;;;;;;;;;10491495;22;20018;-92
2023/06/23 22:10:02;;;;;;;30.33;21.23;;;;;;;;;;10491808;22;20396;-90
2023/06/23 22:14:07;;;;;;;31.25;22.58;;;;;;;;;;10491958;22;20461;-89
2023/06/23 22:18:11;;;;;;;33.85;23.15;;;;;;;;;;10491249;22;20030;-95
2023/06/23 22:22:14;;;;;;;31.25;22.73;;;;;;;;;;10491847;22;20094;-93
2023/06/23 22:26:16;;;;;;;32.20;22.73;;;;;;;;;;10492099;22;20015;-90
2023/06/23 22:30:21;;;;;;;34.15;22.85;;;;;;;;;;10489569;22;20450;-91
2023/06/23 22:34:24;;;;;;;31.85;22.15;;;;;;;;;;10491486;22;20042;-91
2023/06/23 22:38:27;;;;;;;32.22;22.67;;;;;;;;;;10490807;22;20049;-90
2023/06/23 22:42:30;;;;;;;35.85;23.95;;;;;;;;;;10490743;22;20086;-90
2023/06/23 22:46:34;;;;;;;34.60;23.35;;;;;;;;;;10490412;22;20463;-89
2023/06/23 22:50:37;;;;;;;37.22;24.35;;;;;;;;;;10491077;22;20026;-90
2023/06/23 22:54:40;;;;;;;31.92;23.52;;;;;;;;;;10489815;22;20014;-92
2023/06/23 22:58:43;;;;;;;27.67;21.15;;;;;;;;;;10491112;22;20335;-89
2023/06/23 23:02:50;;;;;;;39.78;21.98;;;;;;;;;;10491933;22;20443;-92
2023/06/23 23:06:53;;;;;;;26.60;20.40;;;;;;;;;;10508706;22;20018;-91
2023/06/23 23:11:00;;;;;;;28.23;19.90;;;;;;;;;;10491750;22;20018;-93
2023/06/23 23:15:03;;;;;;;28.10;20.58;;;;;;;;;;10509070;22;20429;-89
2023/06/23 23:19:08;;;;;;;23.23;15.50;;;;;;;;;;10491666;22;20018;-90
2023/06/23 23:23:11;;;;;;;25.77;17.48;;;;;;;;;;10490773;22;20019;-90
2023/06/23 23:27:16;;;;;;;24.90;17.98;;;;;;;;;;10491138;22;20054;-92
2023/06/23 23:35:46;;;;;;;22.17;15.32;;;;;;;;;;10510980;22;20014;-91
2023/06/23 23:39:49;;;;;;;24.90;16.40;;;;;;;;;;10494074;22;20094;-92
2023/06/23 23:43:53;;;;;;;22.88;16.52;;;;;;;;;;10512361;22;20117;-90
2023/06/23 23:47:55;;;;;;;24.23;15.77;;;;;;;;;;10466177;22;20018;-90
2023/06/23 23:52:00;;;;;;;21.40;14.00;;;;;;;;;;10493651;22;20098;-94
2023/06/23 23:56:02;;;;;;;23.20;15.43;;;;;;;;;;10494333;22;20023;-91
